Time;durP1;ratioP1;P1;durP2;ratioP2;P2;SDS_P1;SDS_P2;PMS_P1;PMS_P2;Temp;Humidity;BMP_temperature;BMP_pressure;BME280_temperature;BME280_humidity;BME280_pressure;Samples;Min_cycle;Max_cycle;Signal;HPM_P1;HPM_P2
2022/04/25 00:01:24;;;;;;;11.45;9.63;;;;;;;;;;5055407;28;20204;-49
2022/04/25 00:03:52;;;;;;;12.65;9.93;;;;;;;;;;5054661;28;20203;-51
2022/04/25 00:06:19;;;;;;;11.48;9.38;;;;;;;;;;5055036;28;20204;-51
2022/04/25 00:08:46;;;;;;;10.38;8.77;;;;;;;;;;5054624;28;20211;-50
2022/04/25 00:11:13;;;;;;;12.10;9.30;;;;;;;;;;5054597;28;20562;-49
2022/04/25 00:13:40;;;;;;;10.93;9.25;;;;;;;;;;5055032;28;20214;-50
2022/04/25 00:16:07;;;;;;;12.43;9.88;;;;;;;;;;5055305;28;20196;-52
2022/04/25 00:18:35;;;;;;;13.75;10.52;;;;;;;;;;5054415;28;20227;-51
2022/04/25 00:21:03;;;;;;;13.95;11.27;;;;;;;;;;5054509;28;20270;-49
2022/04/25 00:23:30;;;;;;;12.50;9.55;;;;;;;;;;5054570;28;20234;-49
2022/04/25 00:25:57;;;;;;;13.10;10.57;;;;;;;;;;5054462;28;20227;-50
2022/04/25 00:28:25;;;;;;;14.57;11.70;;;;;;;;;;5054849;28;20228;-50
2022/04/25 00:30:52;;;;;;;13.85;10.98;;;;;;;;;;5054752;28;20575;-49
2022/04/25 00:33:19;;;;;;;14.88;10.93;;;;;;;;;;5054622;28;20232;-51
2022/04/25 00:35:46;;;;;;;15.02;11.80;;;;;;;;;;5054226;28;20200;-49
2022/04/25 00:38:13;;;;;;;14.52;11.75;;;;;;;;;;5054419;28;20296;-54
2022/04/25 00:40:41;;;;;;;14.02;11.38;;;;;;;;;;5054544;28;20207;-51
2022/04/25 00:43:08;;;;;;;15.68;10.98;;;;;;;;;;5054326;28;20218;-50
2022/04/25 00:45:36;;;;;;;15.93;12.27;;;;;;;;;;5054617;28;20200;-51
2022/04/25 00:48:04;;;;;;;16.98;13.05;;;;;;;;;;5054697;28;20231;-49
2022/04/25 00:50:31;;;;;;;13.07;10.93;;;;;;;;;;5054206;28;20200;-51
2022/04/25 00:52:59;;;;;;;18.23;14.02;;;;;;;;;;5054464;28;20290;-51
2022/04/25 00:55:26;;;;;;;25.58;17.75;;;;;;;;;;5054346;28;20207;-52
2022/04/25 00:57:56;;;;;;;35.03;21.90;;;;;;;;;;5054129;28;20250;-50
2022/04/25 01:00:24;;;;;;;29.85;19.60;;;;;;;;;;5054195;28;20678;-50
2022/04/25 01:02:52;;;;;;;33.15;21.70;;;;;;;;;;5054470;28;20551;-53
2022/04/25 01:05:19;;;;;;;40.72;24.83;;;;;;;;;;5054189;28;20684;-53
2022/04/25 01:07:46;;;;;;;30.00;18.83;;;;;;;;;;5054728;28;20204;-55
2022/04/25 01:10:13;;;;;;;36.40;22.83;;;;;;;;;;5058254;28;20227;-50
2022/04/25 01:12:41;;;;;;;26.95;18.63;;;;;;;;;;5057978;28;20622;-48
2022/04/25 01:15:09;;;;;;;25.15;18.33;;;;;;;;;;5058110;28;20203;-49
2022/04/25 01:17:37;;;;;;;20.05;14.15;;;;;;;;;;5057851;28;20200;-49
2022/04/25 01:20:06;;;;;;;19.45;13.52;;;;;;;;;;5057586;28;20595;-50
2022/04/25 01:22:42;;;;;;;18.80;13.98;;;;;;;;;;5056867;28;20215;-50
2022/04/25 01:27:55;;;;;;;21.75;14.55;;;;;;;;;;5057760;28;20618;-50
2022/04/25 01:30:23;;;;;;;20.50;14.48;;;;;;;;;;5057754;28;20212;-51
2022/04/25 01:32:50;;;;;;;19.23;13.70;;;;;;;;;;5057697;28;20269;-50
2022/04/25 01:35:17;;;;;;;21.23;15.40;;;;;;;;;;5058417;28;20189;-49
2022/04/25 01:37:44;;;;;;;23.42;15.48;;;;;;;;;;5057625;28;20211;-49
2022/04/25 01:40:12;;;;;;;20.80;15.63;;;;;;;;;;5057424;28;20315;-50
2022/04/25 01:42:39;;;;;;;21.10;15.27;;;;;;;;;;5057553;28;20220;-49
2022/04/25 01:45:07;;;;;;;19.83;15.43;;;;;;;;;;5057378;28;20204;-51
2022/04/25 01:47:34;;;;;;;24.35;17.00;;;;;;;;;;5057326;28;20208;-50
2022/04/25 01:50:01;;;;;;;21.52;16.58;;;;;;;;;;5056775;28;20208;-54
2022/04/25 01:52:31;;;;;;;23.65;17.33;;;;;;;;;;5057163;28;20204;-52
2022/04/25 01:54:59;;;;;;;22.83;17.33;;;;;;;;;;5056677;28;20286;-53
2022/04/25 01:57:27;;;;;;;27.73;18.77;;;;;;;;;;5057311;28;20522;-55
2022/04/25 01:59:54;;;;;;;30.02;18.42;;;;;;;;;;5057426;28;20227;-54
2022/04/25 02:02:24;;;;;;;27.33;18.98;;;;;;;;;;5056361;28;20551;-52
2022/04/25 02:04:53;;;;;;;26.13;18.40;;;;;;;;;;5057060;28;20208;-54
2022/04/25 02:07:21;;;;;;;23.70;18.92;;;;;;;;;;5057243;28;20215;-46
2022/04/25 02:09:49;;;;;;;25.63;19.00;;;;;;;;;;5056932;28;20204;-54
2022/04/25 02:12:16;;;;;;;27.50;18.25;;;;;;;;;;5056739;28;20403;-51
2022/04/25 02:14:44;;;;;;;27.58;19.23;;;;;;;;;;5057026;28;20679;-53
2022/04/25 02:17:13;;;;;;;26.83;20.00;;;;;;;;;;5056916;28;20588;-50
2022/04/25 02:19:43;;;;;;;28.30;20.15;;;;;;;;;;5056238;28;20224;-50
2022/04/25 02:22:12;;;;;;;28.90;19.60;;;;;;;;;;5056931;28;20211;-49
2022/04/25 02:24:40;;;;;;;30.00;20.90;;;;;;;;;;5056462;28;20291;-50
2022/04/25 02:27:08;;;;;;;30.73;21.05;;;;;;;;;;5057077;28;20234;-50
2022/04/25 02:29:41;;;;;;;29.35;21.00;;;;;;;;;;5056743;28;20211;-49
2022/04/25 02:32:12;;;;;;;27.30;20.80;;;;;;;;;;5056506;28;20291;-47
2022/04/25 02:34:42;;;;;;;31.83;20.70;;;;;;;;;;5055808;28;20236;-50
2022/04/25 02:37:09;;;;;;;30.23;22.23;;;;;;;;;;5056134;28;20200;-48
2022/04/25 02:39:36;;;;;;;30.15;21.80;;;;;;;;;;5056358;28;20224;-50
2022/04/25 02:42:04;;;;;;;29.90;20.60;;;;;;;;;;5056457;28;20226;-51
2022/04/25 02:44:31;;;;;;;34.80;21.85;;;;;;;;;;5056019;28;20661;-51
2022/04/25 02:46:59;;;;;;;30.98;22.10;;;;;;;;;;5055966;28;20670;-50
2022/04/25 02:49:26;;;;;;;31.60;22.25;;;;;;;;;;5055899;28;20639;-50
2022/04/25 02:51:53;;;;;;;32.15;22.02;;;;;;;;;;5055854;28;20208;-50
2022/04/25 02:54:20;;;;;;;28.67;21.45;;;;;;;;;;5055959;28;20569;-53
2022/04/25 02:56:48;;;;;;;32.67;23.17;;;;;;;;;;5055854;28;20278;-51
2022/04/25 02:59:15;;;;;;;39.40;25.13;;;;;;;;;;5055609;28;20567;-51
2022/04/25 03:01:43;;;;;;;38.65;25.23;;;;;;;;;;5055944;28;20219;-50
2022/04/25 03:04:10;;;;;;;36.72;24.98;;;;;;;;;;5055558;28;20273;-50
2022/04/25 03:06:37;;;;;;;36.97;25.30;;;;;;;;;;5055555;28;20212;-50
2022/04/25 03:09:05;;;;;;;35.05;24.17;;;;;;;;;;5055742;28;20214;-50
2022/04/25 03:11:34;;;;;;;42.38;27.33;;;;;;;;;;5055569;28;20273;-51
2022/04/25 03:14:01;;;;;;;34.15;24.85;;;;;;;;;;5055599;28;20200;-51
2022/04/25 03:16:29;;;;;;;35.05;24.13;;;;;;;;;;5054908;28;20215;-51
2022/04/25 03:18:58;;;;;;;34.85;24.02;;;;;;;;;;5055260;28;20253;-50
2022/04/25 03:21:25;;;;;;;39.03;25.52;;;;;;;;;;5055016;28;20204;-54
2022/04/25 03:23:53;;;;;;;31.80;24.10;;;;;;;;;;5055364;28;20266;-55
2022/04/25 03:26:21;;;;;;;36.17;25.30;;;;;;;;;;5055382;28;20211;-51
2022/04/25 03:28:48;;;;;;;66.15;44.42;;;;;;;;;;5055115;28;20228;-50
2022/04/25 03:31:15;;;;;;;69.35;50.17;;;;;;;;;;5054212;28;20546;-51
2022/04/25 03:33:42;;;;;;;44.63;35.03;;;;;;;;;;5055121;28;20666;-51
2022/04/25 03:36:09;;;;;;;38.35;28.73;;;;;;;;;;5054980;28;20507;-54
2022/04/25 03:38:36;;;;;;;36.92;25.85;;;;;;;;;;5054947;28;20258;-51
2022/04/25 03:41:04;;;;;;;36.85;25.63;;;;;;;;;;5054912;28;20301;-49
2022/04/25 03:43:32;;;;;;;35.13;25.20;;;;;;;;;;5055174;28;20212;-53
2022/04/25 03:46:02;;;;;;;33.85;25.15;;;;;;;;;;5055034;28;20303;-55
2022/04/25 03:48:29;;;;;;;35.05;24.75;;;;;;;;;;5055015;28;20227;-50
2022/04/25 03:50:56;;;;;;;31.92;23.75;;;;;;;;;;5054993;28;20199;-52
2022/04/25 03:53:24;;;;;;;29.33;23.48;;;;;;;;;;5055494;28;20239;-52
2022/04/25 03:58:37;;;;;;;31.40;23.15;;;;;;;;;;5073100;28;20606;-53
2022/04/25 04:01:04;;;;;;;33.08;23.42;;;;;;;;;;5068736;28;20235;-58
2022/04/25 04:03:34;;;;;;;31.38;23.92;;;;;;;;;;5073927;28;20311;-53
2022/04/25 04:06:02;;;;;;;29.77;22.75;;;;;;;;;;5059882;28;20215;-54
2022/04/25 04:08:30;;;;;;;25.42;20.88;;;;;;;;;;5073796;28;20223;-55
2022/04/25 04:10:57;;;;;;;24.67;18.80;;;;;;;;;;5069669;28;20236;-55
2022/04/25 04:13:24;;;;;;;24.30;19.15;;;;;;;;;;5054310;28;20224;-54
2022/04/25 04:15:52;;;;;;;22.30;17.02;;;;;;;;;;5056939;28;20281;-54
2022/04/25 04:18:19;;;;;;;22.45;17.83;;;;;;;;;;5072770;28;20227;-54
2022/04/25 04:20:46;;;;;;;21.27;18.10;;;;;;;;;;5073924;28;20235;-55
2022/04/25 04:23:13;;;;;;;20.02;16.90;;;;;;;;;;5073239;28;20598;-58
2022/04/25 04:25:40;;;;;;;23.42;15.98;;;;;;;;;;5073742;28;20239;-53
2022/04/25 04:28:08;;;;;;;21.95;16.83;;;;;;;;;;5073657;28;20226;-61
2022/04/25 04:30:35;;;;;;;21.80;16.77;;;;;;;;;;5072738;28;20238;-50
2022/04/25 04:33:02;;;;;;;18.02;15.45;;;;;;;;;;5053312;28;20243;-52
2022/04/25 04:38:15;;;;;;;26.20;17.75;;;;;;;;;;5073412;28;20230;-56
2022/04/25 04:40:42;;;;;;;19.85;15.75;;;;;;;;;;5061366;28;20263;-61
2022/04/25 04:43:09;;;;;;;21.35;17.02;;;;;;;;;;5064224;28;20659;-59
2022/04/25 04:45:37;;;;;;;24.23;17.65;;;;;;;;;;5066008;28;20227;-55
2022/04/25 04:48:05;;;;;;;20.90;16.92;;;;;;;;;;5068049;28;20247;-53
2022/04/25 04:50:32;;;;;;;21.08;17.25;;;;;;;;;;5067107;28;20526;-55
2022/04/25 04:53:00;;;;;;;21.20;16.48;;;;;;;;;;5065866;28;20215;-47
2022/04/25 04:55:27;;;;;;;22.65;18.10;;;;;;;;;;5066722;28;20636;-62
2022/04/25 04:57:58;;;;;;;23.73;18.67;;;;;;;;;;5065307;28;20250;-56
2022/04/25 05:00:27;;;;;;;23.05;17.67;;;;;;;;;;5061433;28;20661;-59
2022/04/25 05:02:54;;;;;;;23.75;16.60;;;;;;;;;;5065692;28;20220;-55
2022/04/25 05:05:21;;;;;;;27.52;17.55;;;;;;;;;;5056847;28;20677;-59
2022/04/25 05:07:48;;;;;;;22.77;17.50;;;;;;;;;;5057876;28;20227;-58
2022/04/25 05:10:15;;;;;;;21.92;17.15;;;;;;;;;;5058693;28;20230;-60
2022/04/25 05:12:50;;;;;;;21.77;17.20;;;;;;;;;;5071661;28;20223;-58
2022/04/25 05:15:18;;;;;;;22.90;17.40;;;;;;;;;;5063613;28;20264;-56
2022/04/25 05:17:48;;;;;;;18.77;15.68;;;;;;;;;;5062574;28;20231;-58
2022/04/25 05:20:17;;;;;;;22.05;15.73;;;;;;;;;;5071429;28;20878;-61
2022/04/25 05:22:46;;;;;;;22.38;15.07;;;;;;;;;;5071314;28;20263;-58
2022/04/25 05:25:16;;;;;;;17.13;14.48;;;;;;;;;;5059196;28;20220;-59
2022/04/25 05:27:45;;;;;;;18.33;13.43;;;;;;;;;;5057012;28;20685;-51
2022/04/25 05:30:14;;;;;;;19.58;13.77;;;;;;;;;;5056258;28;20310;-58
2022/04/25 05:32:55;;;;;;;15.52;12.55;;;;;;;;;;5056568;28;20228;-54
2022/04/25 05:35:25;;;;;;;14.88;11.77;;;;;;;;;;5056029;28;20282;-55
2022/04/25 05:37:53;;;;;;;18.45;12.65;;;;;;;;;;5056769;28;20224;-55
2022/04/25 05:40:21;;;;;;;17.85;12.30;;;;;;;;;;5056475;28;20524;-56
2022/04/25 05:42:49;;;;;;;17.05;12.73;;;;;;;;;;5056636;28;20234;-50
2022/04/25 05:45:19;;;;;;;19.95;13.60;;;;;;;;;;5056207;28;20220;-51
2022/04/25 05:47:46;;;;;;;17.02;12.82;;;;;;;;;;5055591;28;20247;-50
2022/04/25 05:53:00;;;;;;;20.27;14.75;;;;;;;;;;5056619;28;20666;-57
2022/04/25 05:55:28;;;;;;;18.27;13.85;;;;;;;;;;5055453;28;20288;-50
2022/04/25 05:57:56;;;;;;;27.15;17.42;;;;;;;;;;5056236;28;20270;-55
2022/04/25 06:00:26;;;;;;;20.17;14.10;;;;;;;;;;5056099;28;20244;-56
2022/04/25 06:02:55;;;;;;;19.17;14.25;;;;;;;;;;5034438;28;20228;-55
2022/04/25 06:05:23;;;;;;;33.80;20.42;;;;;;;;;;5034501;28;20220;-54
2022/04/25 06:07:50;;;;;;;24.23;15.55;;;;;;;;;;5034492;28;20243;-52
2022/04/25 06:10:19;;;;;;;24.27;16.65;;;;;;;;;;5034278;28;20228;-49
2022/04/25 06:12:48;;;;;;;20.48;16.52;;;;;;;;;;5034072;28;20237;-62
2022/04/25 06:15:24;;;;;;;18.88;14.93;;;;;;;;;;5034233;28;20663;-62
2022/04/25 06:17:55;;;;;;;17.10;13.70;;;;;;;;;;5034548;28;20231;-62
2022/04/25 06:20:23;;;;;;;17.13;13.85;;;;;;;;;;5034104;28;20236;-62
2022/04/25 06:22:55;;;;;;;25.25;16.85;;;;;;;;;;5034175;28;20612;-61
2022/04/25 06:25:26;;;;;;;17.92;15.55;;;;;;;;;;5034337;28;20224;-53
2022/04/25 06:27:54;;;;;;;18.83;13.95;;;;;;;;;;5033561;28;20722;-62
2022/04/25 06:30:28;;;;;;;18.63;15.45;;;;;;;;;;5033864;28;20647;-62
2022/04/25 06:32:57;;;;;;;19.10;14.88;;;;;;;;;;5034239;28;20255;-61
2022/04/25 06:35:24;;;;;;;20.20;14.80;;;;;;;;;;5035551;28;20229;-62
2022/04/25 06:37:51;;;;;;;19.65;15.65;;;;;;;;;;5035894;28;20375;-62
2022/04/25 06:40:20;;;;;;;20.52;17.10;;;;;;;;;;5035435;28;20232;-62
2022/04/25 06:42:47;;;;;;;20.67;16.58;;;;;;;;;;5035030;28;20227;-58
2022/04/25 06:45:15;;;;;;;22.50;16.30;;;;;;;;;;5035293;28;20233;-61
2022/04/25 06:47:43;;;;;;;21.10;16.38;;;;;;;;;;5035568;28;20232;-63
2022/04/25 06:50:10;;;;;;;21.67;16.55;;;;;;;;;;5035551;28;20240;-61
2022/04/25 06:52:38;;;;;;;22.65;17.80;;;;;;;;;;5035777;28;20683;-61
2022/04/25 06:55:05;;;;;;;24.77;18.10;;;;;;;;;;5035122;28;20697;-61
2022/04/25 06:57:33;;;;;;;21.08;17.25;;;;;;;;;;5035131;28;20221;-62
2022/04/25 07:00:02;;;;;;;27.83;23.10;;;;;;;;;;5035440;28;20232;-62
2022/04/25 07:02:51;;;;;;;23.08;19.80;;;;;;;;;;5035623;28;20532;-61
2022/04/25 07:05:19;;;;;;;23.77;19.83;;;;;;;;;;5034743;28;20312;-61
2022/04/25 07:07:47;;;;;;;25.70;21.70;;;;;;;;;;5035179;28;20231;-62
2022/04/25 07:10:14;;;;;;;31.85;22.70;;;;;;;;;;5034914;28;20306;-61
2022/04/25 07:12:42;;;;;;;24.60;19.08;;;;;;;;;;5035044;28;20217;-61
2022/04/25 07:15:09;;;;;;;27.75;21.90;;;;;;;;;;5034833;28;20224;-61
2022/04/25 07:17:36;;;;;;;24.50;20.40;;;;;;;;;;5035114;28;20234;-62
2022/04/25 07:20:04;;;;;;;26.33;21.00;;;;;;;;;;5035086;28;20229;-61
2022/04/25 07:30:49;;;;;;;21.13;17.15;;;;;;;;;;5033936;28;20229;-61
2022/04/25 07:33:16;;;;;;;21.70;18.10;;;;;;;;;;5039912;28;20247;-61
2022/04/25 07:35:43;;;;;;;22.98;17.65;;;;;;;;;;5054789;28;20228;-61
2022/04/25 07:38:10;;;;;;;23.63;18.73;;;;;;;;;;5054313;28;20277;-62
2022/04/25 07:40:38;;;;;;;20.65;17.88;;;;;;;;;;5054436;28;20620;-61
2022/04/25 07:43:05;;;;;;;20.35;17.70;;;;;;;;;;5053189;28;20705;-59
2022/04/25 07:45:32;;;;;;;23.70;18.33;;;;;;;;;;5054211;28;20679;-61
2022/04/25 07:48:00;;;;;;;25.23;21.88;;;;;;;;;;5054720;28;20224;-61
2022/04/25 07:50:27;;;;;;;21.70;18.85;;;;;;;;;;5053904;28;20220;-62
2022/04/25 07:52:55;;;;;;;24.35;19.63;;;;;;;;;;5054655;28;20216;-60
2022/04/25 07:55:22;;;;;;;30.33;25.30;;;;;;;;;;5054188;28;20235;-61
2022/04/25 07:57:49;;;;;;;31.13;27.33;;;;;;;;;;5053949;28;20298;-60
2022/04/25 08:00:16;;;;;;;31.42;24.77;;;;;;;;;;5054211;28;20224;-61
2022/04/25 08:02:43;;;;;;;32.80;27.25;;;;;;;;;;5054381;28;20234;-60
2022/04/25 08:05:10;;;;;;;34.28;28.15;;;;;;;;;;5053807;28;20223;-62
2022/04/25 08:07:38;;;;;;;33.42;27.75;;;;;;;;;;5054479;28;20227;-59
2022/04/25 08:10:05;;;;;;;34.45;28.23;;;;;;;;;;5053804;28;20220;-59
2022/04/25 08:18:06;;;;;;;37.72;29.27;;;;;;;;;;5073796;28;20215;-61
2022/04/25 08:20:36;;;;;;;31.13;26.73;;;;;;;;;;5073982;28;20246;-61
2022/04/25 08:23:05;;;;;;;33.03;27.48;;;;;;;;;;5073919;28;20685;-58
2022/04/25 08:25:32;;;;;;;33.72;26.30;;;;;;;;;;5073561;28;20277;-59
2022/04/25 08:28:00;;;;;;;33.13;27.92;;;;;;;;;;5073739;28;20678;-61
2022/04/25 08:30:28;;;;;;;34.75;27.70;;;;;;;;;;5073391;28;20681;-60
2022/04/25 08:32:56;;;;;;;31.83;25.88;;;;;;;;;;5074145;28;20271;-61
2022/04/25 08:35:24;;;;;;;34.92;28.70;;;;;;;;;;5073576;28;20226;-65
2022/04/25 08:37:51;;;;;;;34.35;25.42;;;;;;;;;;5073731;28;20223;-58
2022/04/25 08:40:18;;;;;;;32.47;26.65;;;;;;;;;;5066006;28;20294;-61
2022/04/25 08:42:45;;;;;;;32.92;26.95;;;;;;;;;;5054128;28;20220;-62
2022/04/25 08:45:13;;;;;;;31.23;26.67;;;;;;;;;;5062729;28;20619;-61
2022/04/25 08:47:53;;;;;;;29.85;24.13;;;;;;;;;;5074698;28;20528;-61
2022/04/25 08:50:21;;;;;;;32.03;25.10;;;;;;;;;;5074617;28;20199;-64
2022/04/25 08:52:48;;;;;;;29.48;24.33;;;;;;;;;;5074430;28;20204;-62
2022/04/25 08:55:16;;;;;;;29.70;25.30;;;;;;;;;;5074396;28;20291;-61
2022/04/25 08:57:45;;;;;;;28.17;23.75;;;;;;;;;;5074351;28;20208;-61
2022/04/25 09:00:13;;;;;;;31.83;24.63;;;;;;;;;;5074276;28;20204;-61
2022/04/25 09:02:44;;;;;;;31.25;23.40;;;;;;;;;;5074183;28;20626;-61
2022/04/25 09:05:13;;;;;;;30.73;23.73;;;;;;;;;;5074810;28;20265;-61
2022/04/25 09:07:41;;;;;;;25.33;22.45;;;;;;;;;;5074727;28;20195;-61
2022/04/25 09:10:10;;;;;;;28.92;22.70;;;;;;;;;;5074163;28;20236;-61
2022/04/25 09:12:41;;;;;;;25.10;20.05;;;;;;;;;;5074549;28;20265;-61
2022/04/25 09:15:21;;;;;;;28.02;22.20;;;;;;;;;;5074533;28;20199;-61
2022/04/25 09:17:55;;;;;;;29.13;22.05;;;;;;;;;;5074392;28;20203;-61
2022/04/25 09:20:25;;;;;;;25.23;21.50;;;;;;;;;;5073441;28;20192;-61
2022/04/25 09:22:54;;;;;;;24.05;18.98;;;;;;;;;;5074212;28;20237;-61
2022/04/25 09:25:21;;;;;;;24.30;18.90;;;;;;;;;;5074025;28;20296;-62
2022/04/25 09:28:13;;;;;;;20.30;16.27;;;;;;;;;;5073958;28;20231;-61
2022/04/25 09:31:11;;;;;;;18.33;15.75;;;;;;;;;;5077739;28;20192;-61
2022/04/25 09:33:39;;;;;;;21.20;16.73;;;;;;;;;;5000068;28;20256;-61
2022/04/25 09:36:06;;;;;;;22.65;18.77;;;;;;;;;;5016193;28;20212;-61
2022/04/25 09:38:35;;;;;;;20.75;17.15;;;;;;;;;;5016520;28;20205;-61
2022/04/25 09:41:05;;;;;;;25.67;19.98;;;;;;;;;;5016012;28;20245;-61
2022/04/25 09:43:35;;;;;;;23.48;20.08;;;;;;;;;;5016112;28;20611;-61
2022/04/25 09:46:15;;;;;;;24.45;20.45;;;;;;;;;;5016404;28;20208;-61
2022/04/25 09:49:04;;;;;;;27.38;20.23;;;;;;;;;;5016417;28;20514;-62
2022/04/25 09:51:31;;;;;;;24.55;19.23;;;;;;;;;;5016002;28;20220;-62
2022/04/25 09:53:58;;;;;;;19.20;17.13;;;;;;;;;;5016027;28;20229;-61
2022/04/25 09:56:29;;;;;;;25.02;19.50;;;;;;;;;;5000000;28;20629;-62
2022/04/25 09:59:02;;;;;;;22.98;17.42;;;;;;;;;;5015806;28;20667;-62
2022/04/25 10:01:30;;;;;;;19.92;16.52;;;;;;;;;;5016035;28;20248;-63
2022/04/25 10:03:57;;;;;;;18.83;15.68;;;;;;;;;;5015790;28;20213;-64
2022/04/25 10:06:25;;;;;;;22.98;15.35;;;;;;;;;;5015926;28;20197;-63
2022/04/25 10:08:52;;;;;;;22.40;18.05;;;;;;;;;;5017170;28;20229;-63
2022/04/25 10:11:20;;;;;;;20.10;15.55;;;;;;;;;;5077089;28;20215;-63
2022/04/25 10:13:47;;;;;;;17.90;15.57;;;;;;;;;;5077806;28;20203;-63
2022/04/25 10:16:20;;;;;;;17.95;15.02;;;;;;;;;;5076803;28;20642;-63
2022/04/25 10:18:48;;;;;;;20.05;17.30;;;;;;;;;;5077388;28;20207;-63
2022/04/25 10:21:15;;;;;;;19.73;17.65;;;;;;;;;;5077097;28;20219;-63
2022/04/25 10:23:44;;;;;;;19.63;16.25;;;;;;;;;;5076965;28;20211;-63
2022/04/25 10:26:11;;;;;;;20.90;17.33;;;;;;;;;;5076551;28;20210;-63
2022/04/25 10:28:41;;;;;;;23.25;16.95;;;;;;;;;;5076552;28;20195;-63
2022/04/25 10:31:24;;;;;;;19.23;16.38;;;;;;;;;;5076876;28;20207;-63
2022/04/25 10:33:53;;;;;;;18.17;14.90;;;;;;;;;;5075822;28;20609;-63
2022/04/25 10:36:39;;;;;;;20.80;15.90;;;;;;;;;;5076881;28;20206;-64
2022/04/25 10:39:27;;;;;;;16.67;14.32;;;;;;;;;;5076281;28;20215;-64
2022/04/25 10:44:43;;;;;;;15.65;12.38;;;;;;;;;;5076282;28;20223;-63
2022/04/25 10:47:13;;;;;;;15.40;12.52;;;;;;;;;;5076257;28;20211;-63
2022/04/25 10:49:52;;;;;;;16.15;12.77;;;;;;;;;;5075674;28;20204;-64
2022/04/25 10:55:43;;;;;;;14.07;10.68;;;;;;;;;;5064121;28;20623;-63
2022/04/25 10:58:13;;;;;;;12.50;10.82;;;;;;;;;;4988083;28;20205;-63
2022/04/25 11:00:46;;;;;;;14.02;10.20;;;;;;;;;;5003390;28;21032;-60
2022/04/25 11:03:32;;;;;;;11.18;8.68;;;;;;;;;;5010172;28;20222;-64
2022/04/25 11:06:02;;;;;;;10.77;7.93;;;;;;;;;;5005072;28;20190;-63
2022/04/25 11:08:35;;;;;;;11.18;7.70;;;;;;;;;;5002178;28;20572;-63
2022/04/25 11:11:08;;;;;;;7.07;6.22;;;;;;;;;;5004909;28;20187;-63
2022/04/25 11:14:01;;;;;;;8.20;6.70;;;;;;;;;;5004775;28;20228;-63
2022/04/25 11:16:28;;;;;;;8.18;6.50;;;;;;;;;;4991916;28;20220;-63
2022/04/25 11:19:22;;;;;;;8.23;5.82;;;;;;;;;;5001766;28;20229;-62
2022/04/25 11:21:55;;;;;;;7.50;5.70;;;;;;;;;;4979840;28;20221;-60
2022/04/25 11:24:33;;;;;;;8.95;5.72;;;;;;;;;;5014114;28;20252;-58
2022/04/25 11:27:03;;;;;;;7.45;6.07;;;;;;;;;;4994544;28;20216;-58
2022/04/25 11:29:31;;;;;;;11.90;9.35;;;;;;;;;;4994343;28;20716;-62
2022/04/25 11:32:32;;;;;;;12.93;9.60;;;;;;;;;;4997083;28;20536;-63
2022/04/25 11:35:00;;;;;;;9.70;7.88;;;;;;;;;;5056277;28;20224;-63
2022/04/25 11:37:28;;;;;;;12.15;8.60;;;;;;;;;;5055527;28;20269;-63
2022/04/25 11:40:04;;;;;;;11.40;9.15;;;;;;;;;;5054880;28;20204;-64
2022/04/25 11:42:34;;;;;;;13.07;11.02;;;;;;;;;;5065437;28;20235;-62
2022/04/25 11:45:03;;;;;;;9.05;7.35;;;;;;;;;;5064317;28;20258;-61
2022/04/25 11:47:31;;;;;;;12.65;8.95;;;;;;;;;;5060245;28;20227;-61
2022/04/25 11:50:01;;;;;;;13.23;8.30;;;;;;;;;;5054477;28;20247;-61
2022/04/25 11:52:28;;;;;;;9.93;8.38;;;;;;;;;;5053562;28;20684;-60
2022/04/25 11:54:55;;;;;;;13.02;10.82;;;;;;;;;;5072150;28;20258;-60
2022/04/25 11:57:25;;;;;;;11.68;9.43;;;;;;;;;;5060321;28;20254;-62
2022/04/25 12:00:24;;;;;;;16.33;11.18;;;;;;;;;;5054418;28;20313;-61
2022/04/25 12:02:53;;;;;;;14.77;11.23;;;;;;;;;;4992919;28;20681;-60
2022/04/25 12:05:28;;;;;;;14.95;12.82;;;;;;;;;;4994765;28;20320;-61
2022/04/25 12:16:14;;;;;;;12.68;11.38;;;;;;;;;;5012609;28;20264;-61
2022/04/25 12:18:49;;;;;;;14.60;11.35;;;;;;;;;;5012509;28;20225;-60
2022/04/25 12:21:17;;;;;;;14.93;12.00;;;;;;;;;;5012744;28;20303;-60
2022/04/25 12:23:50;;;;;;;14.68;12.13;;;;;;;;;;5012610;28;20249;-60
2022/04/25 12:26:22;;;;;;;16.20;13.27;;;;;;;;;;5007729;28;20238;-62
2022/04/25 12:28:55;;;;;;;14.32;11.57;;;;;;;;;;4992867;28;20234;-62
2022/04/25 12:31:22;;;;;;;13.02;11.35;;;;;;;;;;4992863;28;20263;-63
2022/04/25 12:33:50;;;;;;;14.25;12.05;;;;;;;;;;4992369;28;20319;-62
2022/04/25 12:36:27;;;;;;;16.35;10.80;;;;;;;;;;4992787;28;20684;-62
2022/04/25 12:39:14;;;;;;;14.82;11.95;;;;;;;;;;5036524;28;20228;-62
2022/04/25 12:41:56;;;;;;;16.30;11.15;;;;;;;;;;5053616;28;20320;-61
2022/04/25 12:44:25;;;;;;;12.68;10.88;;;;;;;;;;5054038;28;20228;-62
2022/04/25 12:47:00;;;;;;;12.55;11.25;;;;;;;;;;5052762;28;20228;-61
2022/04/25 12:49:37;;;;;;;11.98;10.70;;;;;;;;;;5053784;28;20242;-62
2022/04/25 12:52:07;;;;;;;13.05;10.70;;;;;;;;;;5053859;28;20255;-61
2022/04/25 12:54:37;;;;;;;12.57;10.80;;;;;;;;;;5053808;28;20236;-61
2022/04/25 12:57:04;;;;;;;12.85;11.18;;;;;;;;;;5053456;28;20262;-62
2022/04/25 12:59:34;;;;;;;12.63;11.25;;;;;;;;;;5053540;28;20236;-61
2022/04/25 13:02:15;;;;;;;13.52;11.55;;;;;;;;;;5053454;28;20232;-60
2022/04/25 13:04:54;;;;;;;12.13;10.82;;;;;;;;;;5057302;28;20243;-58
2022/04/25 13:07:28;;;;;;;10.32;9.27;;;;;;;;;;5057853;28;20224;-59
2022/04/25 13:09:57;;;;;;;12.02;10.07;;;;;;;;;;5062242;28;20223;-60
2022/04/25 13:12:33;;;;;;;13.82;10.82;;;;;;;;;;5077259;28;20273;-58
2022/04/25 13:15:01;;;;;;;14.00;12.02;;;;;;;;;;5077342;28;20234;-60
2022/04/25 13:17:38;;;;;;;13.07;11.70;;;;;;;;;;5077689;28;20292;-58
2022/04/25 13:20:08;;;;;;;14.20;12.77;;;;;;;;;;5077109;28;20251;-59
2022/04/25 13:22:35;;;;;;;11.50;10.30;;;;;;;;;;5077229;28;20275;-59
2022/04/25 13:25:05;;;;;;;12.75;11.45;;;;;;;;;;5076498;28;20632;-59
2022/04/25 13:27:32;;;;;;;12.25;10.65;;;;;;;;;;5062003;28;20235;-60
2022/04/25 13:30:00;;;;;;;11.07;9.95;;;;;;;;;;5056889;28;20674;-60
2022/04/25 13:32:27;;;;;;;14.45;11.50;;;;;;;;;;5069590;28;20693;-60
2022/04/25 13:34:54;;;;;;;13.15;11.75;;;;;;;;;;5076765;28;20243;-61
2022/04/25 13:37:21;;;;;;;11.75;10.18;;;;;;;;;;5059302;28;20319;-67
2022/04/25 13:39:49;;;;;;;11.75;10.55;;;;;;;;;;5058828;28;20224;-66
2022/04/25 13:42:18;;;;;;;14.18;12.23;;;;;;;;;;5061909;28;20259;-63
2022/04/25 13:44:46;;;;;;;11.73;10.50;;;;;;;;;;5044258;28;20674;-59
2022/04/25 13:47:13;;;;;;;9.85;8.85;;;;;;;;;;5064469;28;20251;-60
2022/04/25 13:49:40;;;;;;;10.05;9.00;;;;;;;;;;5065778;28;20548;-59
2022/04/25 13:52:08;;;;;;;8.77;7.97;;;;;;;;;;5065733;28;20238;-59
2022/04/25 13:54:35;;;;;;;8.13;7.30;;;;;;;;;;5065124;28;20244;-60
2022/04/25 13:57:04;;;;;;;10.13;7.40;;;;;;;;;;5064434;28;20228;-59
2022/04/25 13:59:31;;;;;;;9.23;7.88;;;;;;;;;;5060461;28;20698;-58
2022/04/25 14:03:05;;;;;;;11.15;8.35;;;;;;;;;;5061930;28;20232;-63
2022/04/25 14:04:45;;;;;;;9.68;8.07;;;;;;;;;;5065632;28;20252;-58
2022/04/25 14:07:13;;;;;;;8.88;7.97;;;;;;;;;;5067009;28;20242;-60
2022/04/25 14:09:40;;;;;;;9.73;8.77;;;;;;;;;;5062275;28;20212;-60
2022/04/25 14:12:07;;;;;;;13.68;12.27;;;;;;;;;;5068599;28;20658;-58
2022/04/25 14:14:36;;;;;;;14.57;13.13;;;;;;;;;;5070073;28;20219;-58
2022/04/25 14:17:04;;;;;;;12.95;11.70;;;;;;;;;;5075193;28;20231;-60
2022/04/25 14:19:31;;;;;;;12.02;10.82;;;;;;;;;;5075018;28;20266;-58
2022/04/25 14:21:58;;;;;;;13.23;11.82;;;;;;;;;;5075457;28;20529;-58
2022/04/25 14:24:26;;;;;;;13.38;11.98;;;;;;;;;;5075523;28;20873;-57
2022/04/25 14:26:53;;;;;;;13.23;11.93;;;;;;;;;;5070943;28;20273;-59
2022/04/25 14:29:20;;;;;;;13.18;11.77;;;;;;;;;;5075747;28;20302;-56
2022/04/25 14:31:48;;;;;;;12.38;11.20;;;;;;;;;;5075838;28;20231;-59
2022/04/25 14:34:16;;;;;;;13.75;12.35;;;;;;;;;;5075896;28;20364;-56
2022/04/25 14:36:43;;;;;;;15.25;13.65;;;;;;;;;;5076235;28;20195;-56
2022/04/25 14:39:10;;;;;;;14.70;11.20;;;;;;;;;;5070346;28;20251;-60
2022/04/25 14:41:37;;;;;;;14.02;12.63;;;;;;;;;;5064030;28;20220;-57
2022/04/25 14:44:04;;;;;;;14.90;13.32;;;;;;;;;;5075469;28;20231;-58
2022/04/25 14:46:32;;;;;;;14.95;13.45;;;;;;;;;;5072056;28;20662;-58
2022/04/25 14:49:00;;;;;;;13.85;12.15;;;;;;;;;;5063223;28;20318;-54
2022/04/25 14:54:22;;;;;;;15.27;12.45;;;;;;;;;;5057654;28;20231;-60
2022/04/25 14:56:49;;;;;;;14.80;13.32;;;;;;;;;;5055221;28;20231;-56
2022/04/25 14:59:20;;;;;;;15.18;13.38;;;;;;;;;;5055129;28;20235;-59
2022/04/25 15:01:51;;;;;;;14.80;13.30;;;;;;;;;;5055723;28;20337;-57
2022/04/25 15:04:20;;;;;;;15.88;13.25;;;;;;;;;;5060658;28;20222;-58
2022/04/25 15:06:48;;;;;;;16.05;13.18;;;;;;;;;;5075103;28;20245;-58
2022/04/25 15:09:15;;;;;;;15.30;12.15;;;;;;;;;;5074762;28;20249;-58
2022/04/25 15:11:55;;;;;;;13.05;11.70;;;;;;;;;;5075491;28;20247;-57
2022/04/25 15:14:23;;;;;;;14.15;12.05;;;;;;;;;;5074581;28;20273;-57